Terminal Aerodrome Forecast
Issued by NWS

Home | Current Version | Previous Version | Graphics & Text | Print | Product List | Glossary On
Versions: 1 2 3 4 5 6 7 8 9 10 11 12 13 14 15 16 17 18 19 20
612
FTUS43 KFGF 240846 AAB
TAFBJI
TAF AMD
KBJI 240846Z 2409/2506 VRB03KT 3SM BR OVC008
      TEMPO 2410/2413 1SM BR
     FM241400 VRB03KT 5SM BR OVC006
     FM241500 36007KT P6SM BKN010
     FM241800 01008KT P6SM SCT025=

USA.gov is the U.S. government's official web portal to all federal, state and local government web resources and services.